Airfield :
LOGIN :

Register | Disclaimer

   EN    FR    IT 

 










Legend :    VFR   Marginal VFR   IFR   Intensive IFR   Very Intensive IFR
Visi :
Ceiling :
>= 8 km
>= 3000ft
5 to 8 km
1000 to 3000 ft
1500m to 5 km
500 to 1000 ft
800 to 1500m
200 to 500 ft
< 800m
< 200 ft
Symbols :   Thunderstorms  Fog  Heavy snow  Heavy precipitations  Wind > 20 kt
SIGMETs :     Misc.  Thunderstorms  Icing  Turbulence  Mountain Waves  Volcanic Ashes






- Airport Elevation : 17 ft
- IATA code : GRQ


EHGG - Groningen Eelde

CURRENT METAR :
  • 270225Z AUTO 21008KT 3000 BR SCT005 BKN006 BKN007 FEW015CB 17/17 Q1009

EXPIRED METARs :
  • 270155Z AUTO 20005KT 170V230 2900 BR FEW004 SCT013 BKN016 17/17 Q1009
  • 270125Z AUTO 19005KT 160V240 3200 BR BKN005 OVC006 17/17 Q1009
  • 270055Z AUTO 21008KT 170V230 3800 BR FEW005 SCT015 17/17 Q1009
  • 270025Z AUTO 20008KT 3700 BR BKN004 OVC005 17/17 Q1009
  • 262355Z AUTO 18006KT 140V210 6000 SCT004 OVC005 17/16 Q1009

TAF TAF EHGG
Valid from the 27 at 00:00 until the 28 at 06:00 UTC


262306Z 2700/2806 21006KT CAVOK
TEMPO 2700/2703 4000 SHRA SCT030CB
BECMG 2701/2703 4000 BR
PROB40 2701/2707 BKN006
BECMG 2705/2708 9999 NSW
PROB40 2707/2709 BKN012
TEMPO 2713/2802 6000 SHRA SCT025CB
PROB30
TEMPO 2714/2724 VRB20G30KT 4000 TSRA
BECMG 2723/2802 4000 BR



MET'MAP, your aeronautical weather chart ! - Copyright ORBIFLY December 2007 - Disclaimer

ORBIFLY MET'MAP TEAM :

Programming & Development : Alexandra Zaïnal
Concept & original design : Baudouin d'Aumeries
Assistance for programming : Marc-Olivier Méhu
Technical & hardware support : Manuel Goepfert

Contact : metmap@orbifly.com




SOURCES & CREDITS :

   NOAA